createdAt,value
2019-01-23T00:00:33.341Z,-2.50
2019-01-23T00:03:02.544Z,-2.50
2019-01-23T00:05:31.780Z,-2.50
2019-01-23T00:08:01.050Z,-2.50
2019-01-23T00:10:30.100Z,-2.50
2019-01-23T00:12:59.717Z,-2.50
2019-01-23T00:15:28.801Z,-2.50
2019-01-23T00:17:58.088Z,-2.50
2019-01-23T00:20:27.284Z,-2.50
2019-01-23T00:22:57.037Z,-2.50
2019-01-23T00:25:26.146Z,-2.40
2019-01-23T00:27:55.311Z,-2.40
2019-01-23T00:30:24.513Z,-2.50
2019-01-23T00:32:53.757Z,-2.50
2019-01-23T00:35:22.824Z,-2.50
2019-01-23T00:37:51.918Z,-2.50
2019-01-23T00:40:21.079Z,-2.50
2019-01-23T00:42:50.185Z,-2.50
2019-01-23T00:45:19.270Z,-2.50
2019-01-23T00:47:49.699Z,-2.40
2019-01-23T00:50:18.841Z,-2.50
2019-01-23T00:52:47.944Z,-2.50
2019-01-23T00:55:17.206Z,-2.50
2019-01-23T00:57:46.311Z,-2.40
2019-01-23T01:00:25.442Z,-2.40
2019-01-23T01:02:54.857Z,-2.50
2019-01-23T01:05:24.257Z,-2.40
2019-01-23T01:07:53.742Z,-2.50
2019-01-23T01:10:23.053Z,-2.40
2019-01-23T01:12:52.495Z,-2.50
2019-01-23T01:15:21.709Z,-2.40
2019-01-23T01:17:51.168Z,-2.40
2019-01-23T01:20:20.416Z,-2.40
2019-01-23T01:22:49.817Z,-2.40
2019-01-23T01:25:19.197Z,-2.40
2019-01-23T01:27:48.292Z,-2.40
2019-01-23T01:30:20.172Z,-2.40
2019-01-23T01:32:49.311Z,-2.40
2019-01-23T01:35:18.444Z,-2.40
2019-01-23T01:37:48.246Z,-2.40
2019-01-23T01:40:18.109Z,-2.40
2019-01-23T01:42:47.194Z,-2.40
2019-01-23T01:45:17.675Z,-2.40
2019-01-23T01:47:46.784Z,-2.30
2019-01-23T01:50:18.086Z,-2.30
2019-01-23T01:52:47.450Z,-2.30
2019-01-23T01:55:16.592Z,-2.30
2019-01-23T01:57:48.797Z,-2.30
2019-01-23T02:00:35.957Z,-2.30
2019-01-23T02:03:05.146Z,-2.30
2019-01-23T02:05:34.509Z,-2.30
2019-01-23T02:08:03.644Z,-2.30
2019-01-23T02:10:32.862Z,-2.20
2019-01-23T02:13:01.985Z,-2.20
2019-01-23T02:15:31.152Z,-2.30
2019-01-23T02:18:00.286Z,-2.30
2019-01-23T02:20:29.547Z,-2.20
2019-01-23T02:22:58.955Z,-2.30
2019-01-23T02:25:28.184Z,-2.30
2019-01-23T02:27:57.835Z,-2.20
2019-01-23T02:30:27.006Z,-2.20
2019-01-23T02:32:56.238Z,-2.20
2019-01-23T02:35:25.530Z,-2.20
2019-01-23T02:37:54.611Z,-2.20
2019-01-23T02:40:24.253Z,-2.20
2019-01-23T02:42:53.658Z,-2.20
2019-01-23T02:45:23.554Z,-2.20
2019-01-23T02:47:52.898Z,-2.10
2019-01-23T02:50:22.169Z,-2.10
2019-01-23T02:52:51.317Z,-2.10
2019-01-23T02:55:20.468Z,-2.10
2019-01-23T02:57:49.604Z,-2.10
2019-01-23T03:00:19.681Z,-2.10
2019-01-23T03:02:49.568Z,-2.10
2019-01-23T03:05:19.781Z,-2.10
2019-01-23T03:07:48.987Z,-2.10
2019-01-23T03:10:19.580Z,-2.10
2019-01-23T03:12:49.906Z,-2.10
2019-01-23T03:15:19.434Z,-2.10
2019-01-23T03:17:48.936Z,-2.10
2019-01-23T03:20:19.551Z,-2.10
2019-01-23T03:22:48.772Z,-2.10
2019-01-23T03:25:18.255Z,-2.10
2019-01-23T03:27:47.439Z,-2.10
2019-01-23T03:30:21.827Z,-2.10
2019-01-23T03:32:51.218Z,-2.10
2019-01-23T03:35:20.789Z,-2.10
2019-01-23T03:37:50.063Z,-2.10
2019-01-23T03:40:21.533Z,-2.10
2019-01-23T03:42:51.210Z,-2.10
2019-01-23T03:45:20.694Z,-2.10
2019-01-23T03:47:50.071Z,-2.20
2019-01-23T03:50:20.204Z,-2.10
2019-01-23T03:52:49.444Z,-2.10
2019-01-23T03:55:19.193Z,-2.10
2019-01-23T03:57:49.252Z,-2.10
2019-01-23T04:00:22.488Z,-2.20
2019-01-23T04:02:52.883Z,-2.20
2019-01-23T04:05:22.096Z,-2.20
2019-01-23T04:07:51.827Z,-2.20
2019-01-23T04:10:21.357Z,-2.20
2019-01-23T04:12:50.519Z,-2.20
2019-01-23T04:15:19.717Z,-2.20
2019-01-23T04:17:48.812Z,-2.20
2019-01-23T04:20:19.649Z,-2.20
2019-01-23T04:22:48.883Z,-2.20
2019-01-23T04:25:18.201Z,-2.10
2019-01-23T04:27:47.688Z,-2.20
2019-01-23T04:30:19.717Z,-2.10
2019-01-23T04:32:48.966Z,-2.20
2019-01-23T04:35:18.088Z,-2.20
2019-01-23T04:37:47.641Z,-2.20
2019-01-23T04:40:16.749Z,-2.10
2019-01-23T04:42:45.873Z,-2.10
2019-01-23T04:45:15.497Z,-2.10
2019-01-23T04:47:44.772Z,-2.10
2019-01-23T04:50:15.859Z,-2.10
2019-01-23T04:53:00.009Z,-2.10
2019-01-23T04:55:29.649Z,-2.20
2019-01-23T04:57:58.765Z,-2.10
2019-01-23T05:00:29.060Z,-2.20
2019-01-23T05:02:58.628Z,-2.10
2019-01-23T05:05:28.069Z,-2.20
2019-01-23T05:07:57.336Z,-2.20
2019-01-23T05:10:26.766Z,-2.20
2019-01-23T05:12:55.964Z,-2.20
2019-01-23T05:15:25.179Z,-2.20
2019-01-23T05:17:54.535Z,-2.20
2019-01-23T05:20:23.955Z,-2.10
2019-01-23T05:22:53.654Z,-2.20
2019-01-23T05:25:22.982Z,-2.20
2019-01-23T05:27:52.450Z,-2.20
2019-01-23T05:30:23.563Z,-2.30
2019-01-23T05:32:52.698Z,-2.30
2019-01-23T05:35:22.232Z,-2.20
2019-01-23T05:37:51.734Z,-2.20
2019-01-23T05:40:21.237Z,-2.20
2019-01-23T05:42:51.756Z,-2.20
2019-01-23T05:45:21.323Z,-2.20
2019-01-23T05:47:50.552Z,-2.20
2019-01-23T05:50:19.813Z,-2.20
2019-01-23T05:52:49.255Z,-2.20
2019-01-23T05:55:19.469Z,-2.20
2019-01-23T05:57:50.189Z,-2.20
2019-01-23T06:00:20.804Z,-2.20
2019-01-23T06:02:50.321Z,-2.30
2019-01-23T06:05:20.996Z,-2.30
2019-01-23T06:07:50.406Z,-2.30
2019-01-23T06:10:19.599Z,-2.30
2019-01-23T06:12:48.784Z,-2.30
2019-01-23T06:15:18.240Z,-2.40
2019-01-23T06:17:47.465Z,-2.40
2019-01-23T06:20:17.929Z,-2.40
2019-01-23T06:22:47.061Z,-2.40
2019-01-23T06:25:16.186Z,-2.40
2019-01-23T06:27:45.825Z,-2.40
2019-01-23T06:30:17.140Z,-2.40
2019-01-23T06:32:46.644Z,-2.50
2019-01-23T06:35:16.194Z,-2.50
2019-01-23T06:37:46.078Z,-2.50
2019-01-23T06:40:16.592Z,-2.50
2019-01-23T06:42:45.708Z,-2.50
2019-01-23T06:45:15.909Z,-2.50
2019-01-23T06:47:45.651Z,-2.50
2019-01-23T06:50:19.590Z,-2.50
2019-01-23T06:52:49.044Z,-2.50
2019-01-23T06:55:18.302Z,-2.50
2019-01-23T06:57:47.431Z,-2.50
2019-01-23T07:00:18.901Z,-2.50
2019-01-23T07:02:49.134Z,-2.50
2019-01-23T07:05:18.263Z,-2.50
2019-01-23T07:07:47.702Z,-2.60
2019-01-23T07:10:19.291Z,-2.50
2019-01-23T07:12:48.966Z,-2.50
2019-01-23T07:15:18.304Z,-2.50
2019-01-23T07:17:47.822Z,-2.60
2019-01-23T07:20:19.334Z,-2.60
2019-01-23T07:22:48.449Z,-2.60
2019-01-23T07:25:18.051Z,-2.60
2019-01-23T07:27:47.193Z,-2.60
2019-01-23T07:30:24.154Z,-2.50
2019-01-23T07:32:50.602Z,-2.60
2019-01-23T07:35:19.732Z,-2.50
2019-01-23T07:37:49.895Z,-2.50
2019-01-23T07:40:19.160Z,-2.60
2019-01-23T07:42:48.572Z,-2.60
2019-01-23T07:45:18.481Z,-2.50
2019-01-23T07:47:47.709Z,-2.50
2019-01-23T07:50:17.047Z,-2.50
2019-01-23T07:52:46.176Z,-2.50
2019-01-23T07:55:16.657Z,-2.50
2019-01-23T07:57:46.059Z,-2.50
2019-01-23T08:00:17.611Z,-2.50
2019-01-23T08:02:46.951Z,-2.50
2019-01-23T08:05:19.578Z,-2.50
2019-01-23T08:07:50.005Z,-2.40
2019-01-23T08:10:19.224Z,-2.40
2019-01-23T08:12:49.112Z,-2.40
2019-01-23T08:15:20.844Z,-2.40
2019-01-23T08:17:50.443Z,-2.40
2019-01-23T08:20:20.346Z,-2.40
2019-01-23T08:22:49.689Z,-2.30
2019-01-23T08:25:19.083Z,-2.30
2019-01-23T08:27:48.301Z,-2.30
2019-01-23T08:30:18.600Z,-2.30
2019-01-23T08:32:47.801Z,-2.30
2019-01-23T08:35:17.276Z,-2.30
2019-01-23T08:37:46.528Z,-2.30
2019-01-23T08:40:16.162Z,-2.30
2019-01-23T08:42:45.514Z,-2.30
2019-01-23T08:45:14.943Z,-2.20
2019-01-23T08:47:44.448Z,-2.20
2019-01-23T08:50:28.444Z,-2.20
2019-01-23T08:52:57.655Z,-2.20
2019-01-23T08:55:27.192Z,-2.20
2019-01-23T08:57:56.429Z,-2.10
2019-01-23T09:00:25.569Z,-2.10
2019-01-23T09:02:54.973Z,-2.10
2019-01-23T09:05:24.280Z,-2.10
2019-01-23T09:07:56.470Z,-2.10
2019-01-23T09:10:26.169Z,-2.00
2019-01-23T09:12:55.772Z,-2.00
2019-01-23T09:15:24.909Z,-2.00
2019-01-23T09:17:54.380Z,-2.00
2019-01-23T09:20:24.513Z,-2.00
2019-01-23T09:22:53.703Z,-1.90
2019-01-23T09:25:24.003Z,-1.80
2019-01-23T09:27:53.257Z,-1.80
2019-01-23T09:30:31.407Z,-1.80
2019-01-23T09:33:26.667Z,-1.70
2019-01-23T09:37:06.928Z,-1.70
2019-01-23T09:40:10.382Z,-1.70
2019-01-23T09:43:02.634Z,-1.70
2019-01-23T09:46:06.620Z,-1.70
2019-01-23T09:49:09.393Z,-1.70
2019-01-23T09:52:23.661Z,-1.60
2019-01-23T09:54:53.090Z,-1.60
2019-01-23T09:57:22.551Z,-1.60
2019-01-23T09:59:52.119Z,-1.60
2019-01-23T10:02:21.551Z,-1.60
2019-01-23T10:04:50.677Z,-1.60
2019-01-23T10:07:20.077Z,-1.60
2019-01-23T10:09:49.245Z,-1.50
2019-01-23T10:12:18.418Z,-1.50
2019-01-23T10:14:47.664Z,-1.50
2019-01-23T10:17:17.061Z,-1.50
2019-01-23T10:19:46.412Z,-1.50
2019-01-23T10:22:15.866Z,-1.50
2019-01-23T10:24:45.308Z,-1.50
2019-01-23T10:27:14.597Z,-1.50
2019-01-23T10:29:44.031Z,-1.50
2019-01-23T10:32:13.530Z,-1.50
2019-01-23T10:34:42.705Z,-1.60
2019-01-23T10:37:11.841Z,-1.60
2019-01-23T10:39:41.005Z,-1.70
2019-01-23T10:42:10.476Z,-1.70
2019-01-23T10:44:39.688Z,-1.70
2019-01-23T10:47:08.784Z,-1.70
2019-01-23T10:49:38.229Z,-1.80
2019-01-23T10:52:07.417Z,-1.70
2019-01-23T10:54:37.337Z,-1.70
2019-01-23T10:57:07.037Z,-1.70
2019-01-23T10:59:36.668Z,-1.80
2019-01-23T11:02:06.030Z,-1.70
2019-01-23T11:04:35.521Z,-1.70
2019-01-23T11:07:05.071Z,-1.70
2019-01-23T11:09:34.565Z,-1.70
2019-01-23T11:12:04.440Z,-1.70
2019-01-23T11:14:33.630Z,-1.70
2019-01-23T11:17:02.809Z,-1.70
2019-01-23T11:19:32.257Z,-1.70
2019-01-23T11:22:01.585Z,-1.70
2019-01-23T11:24:30.996Z,-1.70
2019-01-23T11:27:00.262Z,-1.80
2019-01-23T11:29:29.733Z,-1.80
2019-01-23T11:31:58.869Z,-1.80
2019-01-23T11:34:28.138Z,-1.70
2019-01-23T11:36:58.068Z,-1.70
2019-01-23T11:39:27.249Z,-1.70
2019-01-23T11:41:56.745Z,-1.70
2019-01-23T11:44:26.009Z,-1.60
2019-01-23T11:46:55.239Z,-1.60
2019-01-23T11:49:24.849Z,-1.60
2019-01-23T11:51:54.557Z,-1.60
2019-01-23T11:54:24.362Z,-1.70
2019-01-23T11:56:53.512Z,-1.70
2019-01-23T11:59:22.760Z,-1.70
2019-01-23T12:01:52.032Z,-1.70
2019-01-23T12:04:21.278Z,-1.70
2019-01-23T12:06:50.389Z,-1.70
2019-01-23T12:09:19.622Z,-1.60
2019-01-23T12:11:49.193Z,-1.60
2019-01-23T12:14:18.596Z,-1.60
2019-01-23T12:16:47.786Z,-1.70
2019-01-23T12:19:17.011Z,-1.70
2019-01-23T12:21:46.463Z,-1.70
2019-01-23T12:24:15.595Z,-1.70
2019-01-23T12:26:45.098Z,-1.70
2019-01-23T12:29:14.325Z,-1.70
2019-01-23T12:31:43.459Z,-1.70
2019-01-23T12:34:12.773Z,-1.80
2019-01-23T12:36:42.267Z,-1.80
2019-01-23T12:39:11.480Z,-1.80
2019-01-23T12:41:40.821Z,-1.80
2019-01-23T12:44:10.031Z,-1.80
2019-01-23T12:46:39.516Z,-1.80
2019-01-23T12:49:08.675Z,-1.80
2019-01-23T12:51:38.380Z,-1.90
2019-01-23T12:54:07.703Z,-1.90
2019-01-23T12:56:37.057Z,-1.90
2019-01-23T12:59:06.579Z,-1.90
2019-01-23T13:01:42.011Z,-1.90
2019-01-23T13:04:10.403Z,-1.90
2019-01-23T13:06:39.772Z,-1.80
2019-01-23T13:09:10.972Z,-1.90
2019-01-23T13:11:40.172Z,-1.90
2019-01-23T13:14:09.334Z,-1.80
2019-01-23T13:16:39.224Z,-1.80
2019-01-23T13:19:11.650Z,-1.80
2019-01-23T13:21:41.149Z,-1.80
2019-01-23T13:24:10.913Z,-1.80
2019-01-23T13:26:40.177Z,-1.80
2019-01-23T13:29:09.410Z,-1.80
2019-01-23T13:31:38.644Z,-1.80
2019-01-23T13:34:07.807Z,-1.80
2019-01-23T13:36:37.069Z,-1.80
2019-01-23T13:39:10.809Z,-1.80
2019-01-23T13:41:39.953Z,-1.80
2019-01-23T13:44:09.335Z,-1.80
2019-01-23T13:46:38.477Z,-1.80
2019-01-23T13:49:07.667Z,-1.80
2019-01-23T13:51:37.158Z,-1.90
2019-01-23T13:54:06.709Z,-1.90
2019-01-23T13:56:36.327Z,-1.90
2019-01-23T13:59:05.895Z,-1.90
2019-01-23T14:01:35.150Z,-1.90
2019-01-23T14:04:04.476Z,-1.90
2019-01-23T14:06:33.966Z,-1.90
2019-01-23T14:09:07.836Z,-1.90
2019-01-23T14:11:36.973Z,-1.90
2019-01-23T14:14:08.173Z,-1.90
2019-01-23T14:16:37.859Z,-1.90
2019-01-23T14:19:07.024Z,-1.90
2019-01-23T14:21:36.143Z,-1.90
2019-01-23T14:24:05.970Z,-1.90
2019-01-23T14:26:35.221Z,-1.90
2019-01-23T14:29:04.727Z,-1.90
2019-01-23T14:31:33.990Z,-1.90
2019-01-23T14:34:03.354Z,-1.90
2019-01-23T14:36:32.501Z,-1.90
2019-01-23T14:39:01.645Z,-1.90
2019-01-23T14:41:30.791Z,-1.90
2019-01-23T14:44:00.449Z,-1.90
2019-01-23T14:46:30.041Z,-1.80
2019-01-23T14:48:59.739Z,-1.80
2019-01-23T14:51:28.937Z,-1.80
2019-01-23T14:53:58.174Z,-1.80
2019-01-23T14:56:27.474Z,-1.80
2019-01-23T14:58:57.003Z,-1.80
2019-01-23T15:01:26.279Z,-1.80
2019-01-23T15:03:55.586Z,-1.80
2019-01-23T15:06:25.037Z,-1.90
2019-01-23T15:08:54.949Z,-1.90
2019-01-23T15:11:24.660Z,-1.90
2019-01-23T15:13:57.543Z,-1.90
2019-01-23T15:16:29.771Z,-1.90
2019-01-23T15:18:59.223Z,-1.90
2019-01-23T15:21:28.639Z,-1.90
2019-01-23T15:23:58.982Z,-1.90
2019-01-23T15:26:28.745Z,-1.90
2019-01-23T15:28:57.953Z,-1.80
2019-01-23T15:31:27.560Z,-1.90
2019-01-23T15:33:56.761Z,-1.80
2019-01-23T15:36:26.473Z,-1.80
2019-01-23T15:38:56.152Z,-1.80
2019-01-23T15:41:28.277Z,-1.80
2019-01-23T15:43:57.516Z,-1.80
2019-01-23T15:46:28.072Z,-1.80
2019-01-23T15:49:00.415Z,-1.90
2019-01-23T15:51:29.685Z,-1.90
2019-01-23T15:53:58.905Z,-1.90
2019-01-23T15:56:31.223Z,-1.90
2019-01-23T15:59:01.153Z,-1.90
2019-01-23T16:01:31.684Z,-1.90
2019-01-23T16:04:01.004Z,-1.90
2019-01-23T16:06:30.203Z,-1.90
2019-01-23T16:08:59.345Z,-1.90
2019-01-23T16:11:28.853Z,-1.90
2019-01-23T16:13:58.089Z,-1.90
2019-01-23T16:16:27.276Z,-1.90
2019-01-23T16:18:56.755Z,-1.90
2019-01-23T16:21:28.870Z,-1.90
2019-01-23T16:23:58.004Z,-1.90
2019-01-23T16:26:27.512Z,-1.90
2019-01-23T16:28:56.933Z,-1.90
2019-01-23T16:31:26.330Z,-1.90
2019-01-23T16:33:56.109Z,-1.90
2019-01-23T16:36:25.495Z,-1.90
2019-01-23T16:38:54.758Z,-1.90
2019-01-23T16:41:23.982Z,-1.90
2019-01-23T16:43:54.094Z,-1.90
2019-01-23T16:46:23.828Z,-1.90
2019-01-23T16:48:53.398Z,-1.90
2019-01-23T16:51:22.664Z,-1.90
2019-01-23T16:53:51.928Z,-1.90
2019-01-23T16:56:21.218Z,-1.90
2019-01-23T16:58:50.652Z,-1.90
2019-01-23T17:01:19.803Z,-1.90
2019-01-23T17:03:48.934Z,-1.90
2019-01-23T17:06:18.374Z,-1.90
2019-01-23T17:08:47.701Z,-1.90
2019-01-23T17:11:17.118Z,-1.90
2019-01-23T17:13:46.797Z,-1.90
2019-01-23T17:16:16.034Z,-1.90
2019-01-23T17:18:45.165Z,-1.90
2019-01-23T17:21:14.376Z,-2.00
2019-01-23T17:23:43.487Z,-1.90
2019-01-23T17:26:12.665Z,-2.00
2019-01-23T17:28:42.436Z,-2.00
2019-01-23T17:31:11.827Z,-2.00
2019-01-23T17:33:41.009Z,-2.00
2019-01-23T17:36:10.451Z,-1.90
2019-01-23T17:38:39.779Z,-2.00
2019-01-23T17:41:08.905Z,-2.00
2019-01-23T17:43:39.345Z,-1.90
2019-01-23T17:46:08.601Z,-2.00
2019-01-23T17:48:38.043Z,-2.00
2019-01-23T17:51:07.185Z,-2.00
2019-01-23T17:53:36.412Z,-2.00
2019-01-23T17:56:06.281Z,-2.00
2019-01-23T17:58:35.795Z,-2.00
2019-01-23T18:01:05.841Z,-2.00
2019-01-23T18:03:34.953Z,-2.00
2019-01-23T18:06:04.245Z,-2.00
2019-01-23T18:08:33.457Z,-2.00
2019-01-23T18:11:02.600Z,-2.00
2019-01-23T18:13:31.952Z,-2.00
2019-01-23T18:16:08.101Z,-2.00
2019-01-23T18:18:38.707Z,-2.00
2019-01-23T18:21:07.921Z,-2.00
2019-01-23T18:23:39.657Z,-2.00
2019-01-23T18:26:09.102Z,-2.00
2019-01-23T18:28:38.321Z,-2.00
2019-01-23T18:31:43.517Z,-2.00
2019-01-23T18:34:48.693Z,-2.00
2019-01-23T18:37:43.102Z,-2.00
2019-01-23T18:40:44.590Z,-2.00
2019-01-23T18:43:49.183Z,-2.00
2019-01-23T18:46:55.149Z,-2.00
2019-01-23T18:49:50.743Z,-2.00
2019-01-23T18:52:20.026Z,-2.00
2019-01-23T18:54:49.595Z,-2.00
2019-01-23T18:57:21.957Z,-2.00
2019-01-23T18:59:51.570Z,-2.00
2019-01-23T19:02:20.829Z,-2.00
2019-01-23T19:04:49.952Z,-2.00
2019-01-23T19:07:19.117Z,-2.00
2019-01-23T19:09:48.262Z,-2.00
2019-01-23T19:12:17.841Z,-2.00
2019-01-23T19:14:47.417Z,-2.00
2019-01-23T19:17:16.513Z,-2.00
2019-01-23T19:19:45.671Z,-2.00
2019-01-23T19:22:14.963Z,-2.00
2019-01-23T19:24:44.146Z,-2.00
2019-01-23T19:27:13.343Z,-2.00
2019-01-23T19:29:42.525Z,-2.00
2019-01-23T19:34:40.915Z,-2.00
2019-01-23T19:37:10.361Z,-2.00
2019-01-23T19:39:39.582Z,-2.00
2019-01-23T19:42:08.744Z,-2.00
2019-01-23T19:44:38.035Z,-2.00
2019-01-23T19:47:07.189Z,-2.00
2019-01-23T19:49:36.373Z,-2.00
2019-01-23T19:52:06.070Z,-2.00
2019-01-23T19:54:35.281Z,-2.00
2019-01-23T19:57:04.841Z,-2.00
2019-01-23T19:59:34.048Z,-2.10
2019-01-23T20:02:03.300Z,-2.10
2019-01-23T20:04:32.451Z,-2.10
2019-01-23T20:07:01.916Z,-2.10
2019-01-23T20:09:31.151Z,-2.10
2019-01-23T20:12:00.350Z,-2.10
2019-01-23T20:14:29.550Z,-2.10
2019-01-23T20:16:58.825Z,-2.10
2019-01-23T20:19:28.077Z,-2.10
2019-01-23T20:21:57.396Z,-2.10
2019-01-23T20:24:26.618Z,-2.10
2019-01-23T20:26:55.847Z,-2.10
2019-01-23T20:29:24.972Z,-2.10
2019-01-23T20:31:55.079Z,-2.10
2019-01-23T20:34:24.365Z,-2.10
2019-01-23T20:36:53.856Z,-2.10
2019-01-23T20:39:23.094Z,-2.10
2019-01-23T20:41:52.204Z,-2.20
2019-01-23T20:44:21.679Z,-2.20
2019-01-23T20:46:50.814Z,-2.20
2019-01-23T20:49:19.985Z,-2.20
2019-01-23T20:51:49.455Z,-2.20
2019-01-23T20:54:18.740Z,-2.20
2019-01-23T20:56:48.016Z,-2.20
2019-01-23T20:59:17.313Z,-2.20
2019-01-23T21:01:46.468Z,-2.20
2019-01-23T21:04:15.906Z,-2.20
2019-01-23T21:06:45.466Z,-2.10
2019-01-23T21:09:14.567Z,-2.10
2019-01-23T21:11:47.104Z,-2.10
2019-01-23T21:14:16.225Z,-2.10
2019-01-23T21:16:45.344Z,-2.10
2019-01-23T21:19:14.669Z,-2.10
2019-01-23T21:21:43.838Z,-2.10
2019-01-23T21:24:13.222Z,-2.10
2019-01-23T21:26:42.656Z,-2.10
2019-01-23T21:29:11.888Z,-2.10
2019-01-23T21:31:41.327Z,-2.10
2019-01-23T21:34:10.553Z,-2.10
2019-01-23T21:36:39.974Z,-2.20
2019-01-23T21:39:10.685Z,-2.20
2019-01-23T21:41:39.871Z,-2.20
2019-01-23T21:44:09.269Z,-2.20
2019-01-23T21:46:38.635Z,-2.10
2019-01-23T21:49:08.048Z,-2.10
2019-01-23T21:51:37.250Z,-2.10
2019-01-23T21:54:06.374Z,-2.10
2019-01-23T21:56:35.513Z,-2.10
2019-01-23T21:59:05.713Z,-2.20
2019-01-23T22:01:35.273Z,-2.10
2019-01-23T22:04:04.637Z,-2.10
2019-01-23T22:06:34.144Z,-2.10
2019-01-23T22:09:04.178Z,-2.10
2019-01-23T22:11:33.509Z,-2.20
2019-01-23T22:14:02.678Z,-2.10
2019-01-23T22:16:31.825Z,-2.10
2019-01-23T22:19:00.933Z,-2.10
2019-01-23T22:21:30.222Z,-2.10
2019-01-23T22:23:59.379Z,-2.20
2019-01-23T22:26:28.569Z,-2.20
2019-01-23T22:28:57.765Z,-2.20
2019-01-23T22:31:27.088Z,-2.20
2019-01-23T22:33:56.595Z,-2.20
2019-01-23T22:36:26.151Z,-2.20
2019-01-23T22:38:55.534Z,-2.20
2019-01-23T22:41:24.644Z,-2.20
2019-01-23T22:43:53.756Z,-2.20
2019-01-23T22:46:23.061Z,-2.20
2019-01-23T22:48:52.201Z,-2.20
2019-01-23T22:51:21.360Z,-2.30
2019-01-23T22:53:50.748Z,-2.30
2019-01-23T22:56:19.901Z,-2.30
2019-01-23T22:58:49.088Z,-2.30
2019-01-23T23:01:22.749Z,-2.30
2019-01-23T23:03:52.003Z,-2.40
2019-01-23T23:06:22.384Z,-2.40
2019-01-23T23:08:51.934Z,-2.40
2019-01-23T23:11:21.397Z,-2.40
2019-01-23T23:13:50.574Z,-2.50
2019-01-23T23:16:19.740Z,-2.50
2019-01-23T23:18:48.835Z,-2.50
2019-01-23T23:21:18.087Z,-2.50
2019-01-23T23:23:47.225Z,-2.40
2019-01-23T23:26:16.704Z,-2.50
2019-01-23T23:28:46.274Z,-2.60
2019-01-23T23:31:15.376Z,-2.50
2019-01-23T23:33:44.489Z,-2.60
2019-01-23T23:36:13.577Z,-2.60
2019-01-23T23:38:42.962Z,-2.60
2019-01-23T23:41:12.121Z,-2.60
2019-01-23T23:43:41.793Z,-2.60
2019-01-23T23:46:11.405Z,-2.50
2019-01-23T23:48:41.075Z,-2.60
2019-01-23T23:51:10.253Z,-2.60
2019-01-23T23:53:39.413Z,-2.60
2019-01-23T23:56:08.910Z,-2.60
2019-01-23T23:58:38.416Z,-2.60
